Vremea acum in Timisoara - Romania

Vrei sa afli care e starea vremii acum in Timis - Romania? Dorim sa iti furnizam starea vremii pentru Timis - Romania. Starea vremii Timis - Romania pentru astazi.

Vremea acum in Timisoara

Temperatura: 25 °C

Este: Senin
Se simte ca: 25.1 °C
Innorat: 0 %
Precipitatii: %
Presiune atmosferica: 1011 hPa
Umiditate: 44%
Vizibilitate: 10 km
Vantul bate din SSE cu 16.9 km/h

Evolutia vremii in Timisoara pe ore

Ora: 06:00
Temperatura: °C
Sansa de precipitatii: %
Ora Descriere Temp Se simte Precipitatii Umiditate Vant
00:00Senin13°12.1°0%61%ESE 11.2 KM/H
01:00Partial innorat12.6°11.7°0%62%ESE 10.4 KM/H
02:00Partial innorat12.4°11.5°0%63%ESE 10.1 KM/H
03:00Senin12.4°11.4°0%62%ESE 10.4 KM/H
04:00Senin13°12.3°0%59%ESE 9.4 KM/H
05:00Senin13.4°12.7°0%57%ESE 10.1 KM/H
06:00Senin12.3°11.3°0%61%ESE 10.8 KM/H
07:00Senin13°12.2°0%60%ESE 10.1 KM/H
08:00Senin16.1°16.1°0%53%SE 9.4 KM/H
09:00Senin19.1°19.1°0%47%SSE 13.3 KM/H
10:00Senin22.1°24.2°0%43%S 13 KM/H
11:00Senin24.6°25°0%38%S 14.8 KM/H
12:00Senin26.2°25.9°0%35%SSW 18.4 KM/H
13:00Senin27.6°26.8°0%32%SSW 19.4 KM/H
14:00Partial innorat28.3°27.3°0%30%SSW 19.8 KM/H
15:00Senin29.1°27.9°0%29%SSW 19.4 KM/H
16:00Senin29.8°28.7°0%30%SSW 18.4 KM/H
17:00Partial innorat27.5°26.9°0%35%SSW 14.8 KM/H
18:00Senin25.6°25.8°0%40%S 10.8 KM/H
19:00Senin23.3°24.7°0%44%S 12.2 KM/H
20:00Acoperit de nori21.7°21.7°0%48%SSW 13.3 KM/H
21:00Innorat21.6°21.6°0%49%SSW 13 KM/H
22:00Senin22.3°24.4°0%48%SW 10.8 KM/H
23:00Senin20.9°20.9°0%53%SSW 12.2 KM/H




tutorials